Time;durP1;ratioP1;P1;durP2;ratioP2;P2;SDS_P1;SDS_P2;PMS_P1;PMS_P2;Temp;Humidity;BMP_temperature;BMP_pressure;BME280_temperature;BME280_humidity;BME280_pressure;Samples;Min_cycle;Max_cycle;Signal;HPM_P1;HPM_P2
2022/03/28 00:02:01;;;;;;;30.80;15.85;;;;;;;;;;5019351;28;20021;-72
2022/03/28 00:04:27;;;;;;;33.78;16.83;;;;;;;;;;5001803;28;20192;-75
2022/03/28 00:06:54;;;;;;;30.05;17.02;;;;;;;;;;5018358;28;20039;-75
2022/03/28 00:09:23;;;;;;;32.30;16.98;;;;;;;;;;5019021;28;20037;-75
2022/03/28 00:11:51;;;;;;;35.65;18.00;;;;;;;;;;5018609;28;20391;-74
2022/03/28 00:14:19;;;;;;;34.28;17.67;;;;;;;;;;5019197;28;20204;-75
2022/03/28 00:16:44;;;;;;;31.52;16.92;;;;;;;;;;5004018;28;20334;-74
2022/03/28 00:19:09;;;;;;;31.55;17.33;;;;;;;;;;5019555;28;20424;-74
2022/03/28 00:21:37;;;;;;;37.75;18.30;;;;;;;;;;5019222;28;20505;-74
2022/03/28 00:24:03;;;;;;;30.88;17.63;;;;;;;;;;5000547;28;21834;-75
2022/03/28 00:26:28;;;;;;;33.10;17.88;;;;;;;;;;5016693;28;20078;-74
2022/03/28 00:28:53;;;;;;;35.30;19.05;;;;;;;;;;5004013;28;20044;-74
2022/03/28 00:31:19;;;;;;;33.78;20.48;;;;;;;;;;5002643;28;20033;-74
2022/03/28 00:33:47;;;;;;;34.08;19.17;;;;;;;;;;5018336;28;20040;-73
2022/03/28 00:36:15;;;;;;;35.80;19.15;;;;;;;;;;5000899;28;20134;-72
2022/03/28 00:38:41;;;;;;;37.60;17.98;;;;;;;;;;5018066;28;20036;-73
2022/03/28 00:41:07;;;;;;;34.53;17.58;;;;;;;;;;4990187;28;20092;-73
2022/03/28 00:43:33;;;;;;;31.08;17.55;;;;;;;;;;5000705;28;20029;-73
2022/03/28 00:45:59;;;;;;;38.38;17.77;;;;;;;;;;5018543;28;20028;-73
2022/03/28 00:48:26;;;;;;;31.42;17.20;;;;;;;;;;5018086;28;20036;-74
2022/03/28 00:50:53;;;;;;;29.60;16.73;;;;;;;;;;5008530;28;20033;-72
2022/03/28 00:53:19;;;;;;;33.92;16.67;;;;;;;;;;5018002;28;20028;-73
2022/03/28 00:55:48;;;;;;;33.58;15.77;;;;;;;;;;5016682;28;20037;-73
2022/03/28 00:58:14;;;;;;;29.50;15.30;;;;;;;;;;5018185;28;20036;-74
2022/03/28 01:00:40;;;;;;;28.35;14.52;;;;;;;;;;5002915;28;20024;-74
2022/03/28 01:03:08;;;;;;;25.23;14.85;;;;;;;;;;5019107;28;20528;-74
2022/03/28 01:05:33;;;;;;;28.13;14.73;;;;;;;;;;5019311;28;20542;-73
2022/03/28 01:08:01;;;;;;;23.85;13.23;;;;;;;;;;4989615;28;20032;-74
2022/03/28 01:10:26;;;;;;;29.15;13.90;;;;;;;;;;5000331;28;20065;-74
2022/03/28 01:12:53;;;;;;;29.63;14.77;;;;;;;;;;5017793;28;20132;-74
2022/03/28 01:15:22;;;;;;;30.45;14.50;;;;;;;;;;5017085;28;20067;-74
2022/03/28 01:18:06;;;;;;;28.73;15.60;;;;;;;;;;5017287;28;20037;-73
2022/03/28 01:20:35;;;;;;;29.42;14.52;;;;;;;;;;5007248;28;20038;-73
2022/03/28 01:23:01;;;;;;;28.45;14.75;;;;;;;;;;5018053;28;20028;-73
2022/03/28 01:25:29;;;;;;;31.55;14.80;;;;;;;;;;5018045;28;20131;-74
2022/03/28 01:27:55;;;;;;;31.05;14.65;;;;;;;;;;4983463;28;20421;-73
2022/03/28 01:30:21;;;;;;;27.80;14.80;;;;;;;;;;5018094;28;20033;-74
2022/03/28 01:32:52;;;;;;;27.10;14.85;;;;;;;;;;5017810;28;20115;-73
2022/03/28 01:35:31;;;;;;;28.50;14.48;;;;;;;;;;4989751;28;20032;-73
2022/03/28 01:37:58;;;;;;;27.17;14.60;;;;;;;;;;5017240;28;20159;-73
2022/03/28 01:40:24;;;;;;;26.33;14.10;;;;;;;;;;5018519;28;20555;-73
2022/03/28 01:42:50;;;;;;;28.90;14.43;;;;;;;;;;5018109;28;21964;-73
2022/03/28 01:45:16;;;;;;;25.73;13.43;;;;;;;;;;4983691;28;20388;-73
2022/03/28 01:47:42;;;;;;;27.48;14.60;;;;;;;;;;5018232;28;20056;-73
2022/03/28 01:50:10;;;;;;;33.13;15.82;;;;;;;;;;5017096;28;20025;-73
2022/03/28 01:52:36;;;;;;;34.50;16.45;;;;;;;;;;4999804;28;20546;-73
2022/03/28 01:55:02;;;;;;;34.70;16.27;;;;;;;;;;4999419;28;20115;-73
2022/03/28 01:57:29;;;;;;;33.35;15.70;;;;;;;;;;4999079;28;20033;-72
2022/03/28 01:59:57;;;;;;;34.33;15.68;;;;;;;;;;4998549;28;20065;-75
2022/03/28 02:02:27;;;;;;;29.05;15.50;;;;;;;;;;4999904;28;20276;-72
2022/03/28 02:04:52;;;;;;;31.65;15.10;;;;;;;;;;4990384;28;20091;-73
2022/03/28 02:07:21;;;;;;;40.15;15.30;;;;;;;;;;4999611;28;20300;-74
2022/03/28 02:09:46;;;;;;;38.25;14.70;;;;;;;;;;4999185;28;20033;-75
2022/03/28 02:12:13;;;;;;;48.00;15.10;;;;;;;;;;5015313;28;20151;-74
2022/03/28 02:14:39;;;;;;;39.95;15.57;;;;;;;;;;5016053;28;20045;-74
2022/03/28 02:17:04;;;;;;;34.10;15.57;;;;;;;;;;5000767;28;20053;-75
2022/03/28 02:19:32;;;;;;;41.90;16.35;;;;;;;;;;4999502;28;20057;-74
2022/03/28 02:21:58;;;;;;;37.58;16.42;;;;;;;;;;5016753;28;20056;-73
2022/03/28 02:24:23;;;;;;;38.30;18.40;;;;;;;;;;4999725;28;20036;-73
2022/03/28 02:26:48;;;;;;;37.75;18.13;;;;;;;;;;5014743;28;20476;-73
2022/03/28 02:29:14;;;;;;;40.70;17.23;;;;;;;;;;4998692;28;20155;-73
2022/03/28 02:31:41;;;;;;;29.83;16.45;;;;;;;;;;5017411;28;20327;-75
2022/03/28 02:34:07;;;;;;;43.90;16.05;;;;;;;;;;5016708;28;20036;-73
2022/03/28 02:36:32;;;;;;;39.33;16.73;;;;;;;;;;4999220;28;20466;-73
2022/03/28 02:38:58;;;;;;;44.65;17.33;;;;;;;;;;5015025;28;20162;-73
2022/03/28 02:41:24;;;;;;;37.78;17.05;;;;;;;;;;5017005;28;20029;-73
2022/03/28 02:43:52;;;;;;;29.58;14.50;;;;;;;;;;5016071;28;20033;-73
2022/03/28 02:46:17;;;;;;;25.27;12.35;;;;;;;;;;4989908;28;20041;-75
2022/03/28 02:48:43;;;;;;;37.65;13.57;;;;;;;;;;5016300;28;20056;-75
2022/03/28 02:51:09;;;;;;;70.35;14.07;;;;;;;;;;5014888;28;20029;-72
2022/03/28 02:53:34;;;;;;;31.85;13.02;;;;;;;;;;5017279;28;20068;-74
2022/03/28 02:56:02;;;;;;;95.25;14.45;;;;;;;;;;4983101;28;20033;-74
2022/03/28 02:58:30;;;;;;;85.07;13.35;;;;;;;;;;5015189;28;20295;-74
2022/03/28 03:00:57;;;;;;;54.65;11.68;;;;;;;;;;5014909;28;20030;-75
2022/03/28 03:03:28;;;;;;;84.75;12.75;;;;;;;;;;5016938;28;20094;-73
2022/03/28 03:05:53;;;;;;;86.32;10.88;;;;;;;;;;5016794;28;20091;-73
2022/03/28 03:08:18;;;;;;;138.77;14.38;;;;;;;;;;5017748;28;20045;-73
2022/03/28 03:10:44;;;;;;;93.50;12.73;;;;;;;;;;5019127;28;20544;-73
2022/03/28 03:13:10;;;;;;;54.38;11.95;;;;;;;;;;5015367;28;20279;-74
2022/03/28 03:15:36;;;;;;;71.20;11.43;;;;;;;;;;5015384;28;20134;-73
2022/03/28 03:18:03;;;;;;;50.28;11.63;;;;;;;;;;5016223;28;20029;-73
2022/03/28 03:20:30;;;;;;;79.78;13.93;;;;;;;;;;5004104;28;20574;-72
2022/03/28 03:22:56;;;;;;;59.40;11.30;;;;;;;;;;5016582;28;20037;-72
2022/03/28 03:25:22;;;;;;;91.30;9.93;;;;;;;;;;5019766;28;20112;-72
2022/03/28 03:27:51;;;;;;;53.97;9.48;;;;;;;;;;5000313;28;20048;-74
2022/03/28 03:30:17;;;;;;;49.15;9.10;;;;;;;;;;5020358;28;21903;-72
2022/03/28 03:32:43;;;;;;;34.22;9.07;;;;;;;;;;5019170;28;20112;-74
2022/03/28 03:35:09;;;;;;;26.77;6.32;;;;;;;;;;5019326;28;20102;-72
2022/03/28 03:37:37;;;;;;;22.90;6.97;;;;;;;;;;5020711;28;20284;-74
2022/03/28 03:40:03;;;;;;;45.13;8.40;;;;;;;;;;5019973;28;20089;-75
2022/03/28 03:42:31;;;;;;;28.70;6.22;;;;;;;;;;5002430;28;20155;-75
2022/03/28 03:44:57;;;;;;;47.95;7.50;;;;;;;;;;5001195;28;20125;-74
2022/03/28 03:47:22;;;;;;;31.23;6.07;;;;;;;;;;5007642;28;20025;-74
2022/03/28 03:49:47;;;;;;;46.83;6.43;;;;;;;;;;5019139;28;20846;-75
2022/03/28 03:52:13;;;;;;;58.60;7.63;;;;;;;;;;5019286;28;20048;-74
2022/03/28 03:54:38;;;;;;;36.97;7.30;;;;;;;;;;5019643;28;20457;-74
2022/03/28 03:57:06;;;;;;;50.97;8.30;;;;;;;;;;5020235;28;20417;-74
2022/03/28 03:59:32;;;;;;;21.67;7.93;;;;;;;;;;5019538;28;20644;-74
2022/03/28 04:02:00;;;;;;;30.45;8.40;;;;;;;;;;5019046;28;20253;-74
2022/03/28 04:04:28;;;;;;;29.08;7.90;;;;;;;;;;5019162;28;20052;-73
2022/03/28 04:06:55;;;;;;;36.28;7.57;;;;;;;;;;5019550;28;20997;-75
2022/03/28 04:09:21;;;;;;;45.22;9.85;;;;;;;;;;5009146;28;20065;-73
2022/03/28 04:11:47;;;;;;;33.72;8.27;;;;;;;;;;5019775;28;20799;-73
2022/03/28 04:14:12;;;;;;;61.58;8.85;;;;;;;;;;5000803;28;20042;-74
2022/03/28 04:16:38;;;;;;;34.40;11.68;;;;;;;;;;5019609;28;20159;-73
2022/03/28 04:19:03;;;;;;;51.92;9.85;;;;;;;;;;5000773;28;20112;-73
2022/03/28 04:21:30;;;;;;;88.88;10.88;;;;;;;;;;5018423;28;20029;-73
2022/03/28 04:23:58;;;;;;;99.20;11.40;;;;;;;;;;5018177;28;20052;-74
2022/03/28 04:26:23;;;;;;;41.65;9.77;;;;;;;;;;5019096;28;20090;-73
2022/03/28 04:28:53;;;;;;;57.75;11.52;;;;;;;;;;5018557;28;20611;-72
2022/03/28 04:31:19;;;;;;;55.45;12.18;;;;;;;;;;5019061;28;20025;-74
2022/03/28 04:33:44;;;;;;;78.45;13.57;;;;;;;;;;4984138;28;20032;-74
2022/03/28 04:36:10;;;;;;;47.22;10.68;;;;;;;;;;5017193;28;20481;-74
2022/03/28 04:38:37;;;;;;;50.83;9.40;;;;;;;;;;5018545;28;20029;-73
2022/03/28 04:41:03;;;;;;;74.60;11.70;;;;;;;;;;5018828;28;20485;-74
2022/03/28 04:43:31;;;;;;;79.35;12.00;;;;;;;;;;4971184;28;20040;-74
2022/03/28 04:45:57;;;;;;;87.78;12.20;;;;;;;;;;5017860;28;20037;-74
2022/03/28 04:48:23;;;;;;;73.45;11.88;;;;;;;;;;4990044;28;20640;-74
2022/03/28 04:50:48;;;;;;;56.53;12.18;;;;;;;;;;5017761;28;20025;-73
2022/03/28 04:53:14;;;;;;;36.90;11.77;;;;;;;;;;5018391;28;21733;-74
2022/03/28 04:55:44;;;;;;;71.30;14.00;;;;;;;;;;5002190;28;20078;-75
2022/03/28 04:58:09;;;;;;;75.53;12.30;;;;;;;;;;5017983;28;21941;-74
2022/03/28 05:00:35;;;;;;;47.17;12.43;;;;;;;;;;5018226;28;20453;-73
2022/03/28 05:03:00;;;;;;;42.38;10.80;;;;;;;;;;5017945;28;20035;-73
2022/03/28 05:05:26;;;;;;;59.20;11.63;;;;;;;;;;5007538;28;20181;-73
2022/03/28 05:07:51;;;;;;;37.05;11.05;;;;;;;;;;5017653;28;20910;-73
2022/03/28 05:10:17;;;;;;;49.10;12.10;;;;;;;;;;5018527;28;20122;-74
2022/03/28 05:12:47;;;;;;;56.38;14.60;;;;;;;;;;5018865;28;20053;-75
2022/03/28 05:15:15;;;;;;;63.17;13.60;;;;;;;;;;5017985;28;20051;-74
2022/03/28 05:17:40;;;;;;;59.60;12.98;;;;;;;;;;5017415;28;20307;-76
2022/03/28 05:20:08;;;;;;;78.13;12.65;;;;;;;;;;4999107;28;20077;-75
2022/03/28 05:22:33;;;;;;;65.75;12.57;;;;;;;;;;5001900;28;20029;-75
2022/03/28 05:24:59;;;;;;;58.97;12.85;;;;;;;;;;5019013;28;20315;-74
2022/03/28 05:27:25;;;;;;;55.95;13.02;;;;;;;;;;5018369;28;20048;-75
2022/03/28 05:29:52;;;;;;;45.22;11.98;;;;;;;;;;5017102;28;20064;-75
2022/03/28 05:32:18;;;;;;;86.05;11.40;;;;;;;;;;5018078;28;20148;-73
2022/03/28 05:34:44;;;;;;;112.00;13.50;;;;;;;;;;5016182;28;20504;-75
2022/03/28 05:37:11;;;;;;;78.53;14.35;;;;;;;;;;5015906;28;20061;-75
2022/03/28 05:39:37;;;;;;;72.20;12.43;;;;;;;;;;5000927;28;20033;-74
2022/03/28 05:42:05;;;;;;;40.95;11.35;;;;;;;;;;5017988;28;20453;-75
2022/03/28 05:44:38;;;;;;;55.10;12.77;;;;;;;;;;5016595;28;20047;-74
2022/03/28 05:47:09;;;;;;;93.03;16.10;;;;;;;;;;5016963;28;20405;-75
2022/03/28 05:49:35;;;;;;;96.15;13.38;;;;;;;;;;4984835;28;20071;-74
2022/03/28 05:52:00;;;;;;;73.55;11.88;;;;;;;;;;5016818;28;20513;-75
2022/03/28 05:54:28;;;;;;;102.53;13.18;;;;;;;;;;5000310;28;20347;-78
2022/03/28 05:56:54;;;;;;;77.55;11.45;;;;;;;;;;4998060;28;20123;-78
2022/03/28 05:59:22;;;;;;;68.40;12.38;;;;;;;;;;5017402;28;20102;-77
2022/03/28 06:01:47;;;;;;;108.45;12.98;;;;;;;;;;5017250;28;20036;-78
2022/03/28 06:04:13;;;;;;;79.22;13.68;;;;;;;;;;5017370;28;20499;-77
2022/03/28 06:06:38;;;;;;;138.18;15.68;;;;;;;;;;4998238;28;20033;-80
2022/03/28 06:09:04;;;;;;;80.15;12.77;;;;;;;;;;5016344;28;20036;-77
2022/03/28 06:11:30;;;;;;;71.15;12.23;;;;;;;;;;5016774;28;20059;-79
2022/03/28 06:13:57;;;;;;;101.20;14.77;;;;;;;;;;5016373;28;20586;-77
2022/03/28 06:16:22;;;;;;;88.82;12.80;;;;;;;;;;5016783;28;20413;-77
2022/03/28 06:18:50;;;;;;;67.05;11.40;;;;;;;;;;5001176;28;20037;-78
2022/03/28 06:21:16;;;;;;;63.03;11.48;;;;;;;;;;5017321;28;20485;-78
2022/03/28 06:23:44;;;;;;;77.05;11.77;;;;;;;;;;4999651;28;21847;-78
2022/03/28 06:26:12;;;;;;;66.50;11.80;;;;;;;;;;4997903;28;21821;-78
2022/03/28 06:28:39;;;;;;;62.85;12.70;;;;;;;;;;5017375;28;20040;-77
2022/03/28 06:31:06;;;;;;;75.10;12.00;;;;;;;;;;5015127;28;20032;-77
2022/03/28 06:33:32;;;;;;;82.43;10.13;;;;;;;;;;5016795;28;20033;-77
2022/03/28 06:36:00;;;;;;;116.05;12.18;;;;;;;;;;5016656;28;20183;-77
2022/03/28 06:38:25;;;;;;;116.07;12.65;;;;;;;;;;5015718;28;20037;-76
2022/03/28 06:40:53;;;;;;;90.07;12.60;;;;;;;;;;5016327;28;20029;-77
2022/03/28 06:43:21;;;;;;;83.22;9.85;;;;;;;;;;5014018;28;20049;-76
2022/03/28 06:45:50;;;;;;;87.13;12.35;;;;;;;;;;5015533;28;20037;-78
2022/03/28 06:48:19;;;;;;;63.38;12.18;;;;;;;;;;5017033;28;20033;-77
2022/03/28 06:50:44;;;;;;;51.50;10.88;;;;;;;;;;4999748;28;20253;-77
2022/03/28 06:53:12;;;;;;;38.28;10.05;;;;;;;;;;5016528;28;20039;-76
2022/03/28 06:55:37;;;;;;;37.90;11.15;;;;;;;;;;4999260;28;20033;-78
2022/03/28 06:58:06;;;;;;;38.45;10.48;;;;;;;;;;5016677;28;20041;-77
2022/03/28 07:00:32;;;;;;;39.88;10.48;;;;;;;;;;5019452;28;20037;-77
2022/03/28 07:02:57;;;;;;;36.65;10.95;;;;;;;;;;5020105;28;20044;-77
2022/03/28 07:05:22;;;;;;;29.10;10.57;;;;;;;;;;5018915;28;20029;-77
2022/03/28 07:07:49;;;;;;;63.20;10.98;;;;;;;;;;5019689;28;21859;-79
2022/03/28 07:10:23;;;;;;;37.53;10.55;;;;;;;;;;5003436;28;20347;-77
2022/03/28 07:12:53;;;;;;;33.53;9.90;;;;;;;;;;5015143;28;20053;-76
2022/03/28 07:15:21;;;;;;;27.10;9.27;;;;;;;;;;4999396;28;20048;-76
2022/03/28 07:17:54;;;;;;;42.58;11.48;;;;;;;;;;5004551;28;20730;-79
2022/03/28 07:20:23;;;;;;;37.60;10.88;;;;;;;;;;5000441;28;20029;-77
2022/03/28 07:22:48;;;;;;;41.38;13.07;;;;;;;;;;5000271;28;20647;-78
2022/03/28 07:25:14;;;;;;;35.55;12.52;;;;;;;;;;5000282;28;20036;-76
2022/03/28 07:27:41;;;;;;;38.63;12.10;;;;;;;;;;5002049;28;20030;-79
2022/03/28 07:30:07;;;;;;;40.10;14.13;;;;;;;;;;4981631;28;20041;-77
2022/03/28 07:32:36;;;;;;;41.08;11.73;;;;;;;;;;4999727;28;20152;-77
2022/03/28 07:35:04;;;;;;;42.20;10.80;;;;;;;;;;4998810;28;20033;-77
2022/03/28 07:37:32;;;;;;;61.45;12.07;;;;;;;;;;5000755;28;20572;-77
2022/03/28 07:40:00;;;;;;;45.63;11.73;;;;;;;;;;5000427;28;20269;-75
2022/03/28 07:42:26;;;;;;;40.00;11.85;;;;;;;;;;4999406;28;20038;-75
2022/03/28 07:44:56;;;;;;;41.42;13.15;;;;;;;;;;4999267;28;20056;-76
2022/03/28 07:47:27;;;;;;;63.00;12.82;;;;;;;;;;4999328;28;20141;-75
2022/03/28 07:49:53;;;;;;;48.67;11.73;;;;;;;;;;4999224;28;20265;-76
2022/03/28 07:52:19;;;;;;;51.53;13.00;;;;;;;;;;4997808;28;20068;-76
2022/03/28 07:54:45;;;;;;;30.25;10.57;;;;;;;;;;4997375;28;20524;-77
2022/03/28 07:57:14;;;;;;;29.70;10.50;;;;;;;;;;4998202;28;20036;-77
2022/03/28 07:59:40;;;;;;;52.28;13.13;;;;;;;;;;4998242;28;20029;-77
2022/03/28 08:02:07;;;;;;;36.70;12.98;;;;;;;;;;4987148;28;20029;-75
2022/03/28 08:04:32;;;;;;;29.63;11.23;;;;;;;;;;4996778;28;20281;-75
2022/03/28 08:07:08;;;;;;;27.42;11.95;;;;;;;;;;4997758;28;20268;-76
2022/03/28 08:09:38;;;;;;;34.13;13.23;;;;;;;;;;4997367;28;20057;-77
2022/03/28 08:12:05;;;;;;;39.25;14.70;;;;;;;;;;5003510;28;20228;-73
2022/03/28 08:14:30;;;;;;;34.22;13.13;;;;;;;;;;5002643;28;20041;-73
2022/03/28 08:16:56;;;;;;;27.23;11.10;;;;;;;;;;5016941;28;20056;-72
2022/03/28 08:19:24;;;;;;;37.97;11.98;;;;;;;;;;5018510;28;20029;-72
2022/03/28 08:21:50;;;;;;;26.90;11.98;;;;;;;;;;5008303;28;20037;-72
2022/03/28 08:24:15;;;;;;;23.90;11.35;;;;;;;;;;4989377;28;20036;-72
2022/03/28 08:26:41;;;;;;;27.25;11.90;;;;;;;;;;5018291;28;20021;-71
2022/03/28 08:29:06;;;;;;;31.73;12.40;;;;;;;;;;4990648;28;20507;-71
2022/03/28 08:31:32;;;;;;;27.83;13.05;;;;;;;;;;5006291;28;20049;-72
2022/03/28 08:34:01;;;;;;;30.92;13.07;;;;;;;;;;5017376;28;20033;-71
2022/03/28 08:36:27;;;;;;;27.20;12.60;;;;;;;;;;5017899;28;20025;-71
2022/03/28 08:38:52;;;;;;;26.80;12.70;;;;;;;;;;5016754;28;20044;-72
2022/03/28 08:41:20;;;;;;;26.02;12.38;;;;;;;;;;5016531;28;20080;-71
2022/03/28 08:43:46;;;;;;;26.10;13.65;;;;;;;;;;5016946;28;20031;-72
2022/03/28 08:46:15;;;;;;;37.10;14.40;;;;;;;;;;5018019;28;20031;-71
2022/03/28 08:48:41;;;;;;;37.58;15.32;;;;;;;;;;5016508;28;20037;-71
2022/03/28 08:51:09;;;;;;;30.30;13.00;;;;;;;;;;5016472;28;20661;-71
2022/03/28 08:53:39;;;;;;;55.25;13.95;;;;;;;;;;5016390;28;20631;-71
2022/03/28 08:56:05;;;;;;;23.20;12.18;;;;;;;;;;5000456;28;20039;-73
2022/03/28 08:58:30;;;;;;;31.05;15.10;;;;;;;;;;4985057;28;20626;-70
2022/03/28 09:00:56;;;;;;;29.10;14.30;;;;;;;;;;5002674;28;20045;-71
2022/03/28 09:03:40;;;;;;;29.70;13.05;;;;;;;;;;4999580;28;20159;-72
2022/03/28 09:06:24;;;;;;;27.02;12.55;;;;;;;;;;5000174;28;20028;-71
2022/03/28 09:08:50;;;;;;;22.85;11.98;;;;;;;;;;5015943;28;20040;-70
2022/03/28 09:11:23;;;;;;;24.42;12.73;;;;;;;;;;5014913;28;20132;-71
2022/03/28 09:13:49;;;;;;;25.77;13.45;;;;;;;;;;5016081;28;20580;-71
2022/03/28 09:16:19;;;;;;;29.23;14.48;;;;;;;;;;5015408;28;20056;-72
2022/03/28 09:18:46;;;;;;;30.00;15.15;;;;;;;;;;5016816;28;20384;-72
2022/03/28 09:21:14;;;;;;;27.27;14.65;;;;;;;;;;5015128;28;20025;-72
2022/03/28 09:23:40;;;;;;;32.45;17.00;;;;;;;;;;4998957;28;20021;-72
2022/03/28 09:26:09;;;;;;;40.08;16.98;;;;;;;;;;5015994;28;20025;-71
2022/03/28 09:28:37;;;;;;;40.30;19.23;;;;;;;;;;4997691;28;20044;-70
2022/03/28 09:31:23;;;;;;;32.70;15.93;;;;;;;;;;4997453;28;20071;-72
2022/03/28 09:33:52;;;;;;;36.35;18.92;;;;;;;;;;5004679;28;20661;-72
2022/03/28 09:36:20;;;;;;;34.83;17.95;;;;;;;;;;4998283;28;20523;-71
2022/03/28 09:38:55;;;;;;;44.33;19.30;;;;;;;;;;4997807;28;20040;-69
2022/03/28 09:41:22;;;;;;;37.90;18.52;;;;;;;;;;5015702;28;20025;-69
2022/03/28 09:43:54;;;;;;;47.35;22.50;;;;;;;;;;5015484;28;20094;-70
2022/03/28 09:46:30;;;;;;;33.65;17.88;;;;;;;;;;5015741;28;20033;-69
2022/03/28 09:48:57;;;;;;;49.90;24.35;;;;;;;;;;5015761;28;20064;-69
2022/03/28 09:51:25;;;;;;;55.58;27.00;;;;;;;;;;5014395;28;20114;-71
2022/03/28 09:53:51;;;;;;;55.30;26.90;;;;;;;;;;5014349;28;20025;-73
2022/03/28 09:56:16;;;;;;;57.78;28.33;;;;;;;;;;5016152;28;20041;-70
2022/03/28 09:58:47;;;;;;;52.15;27.02;;;;;;;;;;4983514;28;20048;-71
2022/03/28 10:01:17;;;;;;;30.65;17.40;;;;;;;;;;4998862;28;20029;-71
2022/03/28 10:03:46;;;;;;;39.40;19.98;;;;;;;;;;4999328;28;20067;-72
2022/03/28 10:06:12;;;;;;;26.00;15.13;;;;;;;;;;5014675;28;20040;-71
2022/03/28 10:08:40;;;;;;;26.55;13.43;;;;;;;;;;4997353;28;20624;-71
2022/03/28 10:11:06;;;;;;;20.95;12.40;;;;;;;;;;5015782;28;20036;-72
2022/03/28 10:13:31;;;;;;;28.95;13.05;;;;;;;;;;5000183;28;20098;-74
2022/03/28 10:15:58;;;;;;;23.27;13.65;;;;;;;;;;5012939;28;20978;-71
2022/03/28 10:18:30;;;;;;;24.98;14.30;;;;;;;;;;5013848;28;20072;-71
2022/03/28 10:20:57;;;;;;;27.90;14.13;;;;;;;;;;5015111;28;20033;-74
2022/03/28 10:23:25;;;;;;;28.25;16.38;;;;;;;;;;5014185;28;20044;-72
2022/03/28 10:25:54;;;;;;;27.85;14.48;;;;;;;;;;5014376;28;20035;-71
2022/03/28 10:28:20;;;;;;;25.48;14.02;;;;;;;;;;5014657;28;20025;-71
2022/03/28 10:30:48;;;;;;;20.77;13.43;;;;;;;;;;5012538;28;20471;-71
2022/03/28 10:33:20;;;;;;;22.60;13.18;;;;;;;;;;5015745;28;20488;-72
2022/03/28 10:35:55;;;;;;;24.20;12.98;;;;;;;;;;4999876;28;20056;-71
2022/03/28 10:38:22;;;;;;;31.02;16.38;;;;;;;;;;4996672;28;20032;-70
2022/03/28 10:40:57;;;;;;;24.73;14.70;;;;;;;;;;4998212;28;20388;-70
2022/03/28 10:43:25;;;;;;;23.05;12.52;;;;;;;;;;5015170;28;20301;-70
2022/03/28 10:45:56;;;;;;;22.60;13.43;;;;;;;;;;5013907;28;20834;-72
2022/03/28 10:48:40;;;;;;;23.15;12.68;;;;;;;;;;4998522;28;20570;-72
2022/03/28 10:51:13;;;;;;;25.65;13.65;;;;;;;;;;5014058;28;20033;-71
2022/03/28 10:53:54;;;;;;;24.23;12.68;;;;;;;;;;5014777;28;20416;-71
2022/03/28 10:56:23;;;;;;;26.15;14.80;;;;;;;;;;5014360;28;20378;-70
2022/03/28 10:58:55;;;;;;;26.63;16.17;;;;;;;;;;5015071;28;20034;-70
2022/03/28 11:01:21;;;;;;;30.67;17.95;;;;;;;;;;5014252;28;20070;-70
2022/03/28 11:04:00;;;;;;;28.85;17.13;;;;;;;;;;5014442;28;20662;-71
2022/03/28 11:06:44;;;;;;;31.50;18.50;;;;;;;;;;5002005;28;20419;-71
2022/03/28 11:09:09;;;;;;;24.50;15.30;;;;;;;;;;5015045;28;20025;-71
2022/03/28 11:11:35;;;;;;;23.10;15.27;;;;;;;;;;5014971;28;20132;-72
2022/03/28 11:14:00;;;;;;;26.90;17.20;;;;;;;;;;5013694;28;20394;-71
2022/03/28 11:16:43;;;;;;;23.10;15.23;;;;;;;;;;5011668;28;20204;-71
2022/03/28 11:19:21;;;;;;;22.58;15.07;;;;;;;;;;5000351;28;20523;-72
2022/03/28 11:21:56;;;;;;;24.27;14.30;;;;;;;;;;5015110;28;20030;-71
2022/03/28 11:24:40;;;;;;;16.65;9.20;;;;;;;;;;5013438;28;20036;-72
2022/03/28 11:27:05;;;;;;;16.02;9.63;;;;;;;;;;4995591;28;20212;-71
2022/03/28 11:29:31;;;;;;;17.27;9.60;;;;;;;;;;5013400;28;20032;-71
2022/03/28 11:31:56;;;;;;;15.18;9.48;;;;;;;;;;5014324;28;20045;-71
2022/03/28 11:34:21;;;;;;;16.80;9.40;;;;;;;;;;5014090;28;20202;-71
2022/03/28 11:36:47;;;;;;;17.58;9.35;;;;;;;;;;5013507;28;20079;-69
2022/03/28 11:39:16;;;;;;;14.43;8.82;;;;;;;;;;5013804;28;20466;-70
2022/03/28 11:41:41;;;;;;;15.35;9.05;;;;;;;;;;5013781;28;20384;-70
2022/03/28 11:44:11;;;;;;;19.15;8.90;;;;;;;;;;5014416;28;20131;-71
2022/03/28 11:46:36;;;;;;;14.70;8.88;;;;;;;;;;5016941;28;20355;-71
2022/03/28 11:49:09;;;;;;;15.20;8.90;;;;;;;;;;5017602;28;20033;-71
2022/03/28 11:51:38;;;;;;;15.02;9.48;;;;;;;;;;5016842;28;20538;-73
2022/03/28 11:54:08;;;;;;;15.57;8.65;;;;;;;;;;5017164;28;20055;-70
2022/03/28 11:59:21;;;;;;;17.38;9.38;;;;;;;;;;4999197;28;20504;-71
2022/03/28 12:01:49;;;;;;;15.57;8.93;;;;;;;;;;5018070;28;20025;-69
2022/03/28 12:04:17;;;;;;;17.73;9.57;;;;;;;;;;4998711;28;20041;-71
2022/03/28 12:06:43;;;;;;;16.27;9.40;;;;;;;;;;5017324;28;20025;-69
2022/03/28 12:09:14;;;;;;;17.10;8.98;;;;;;;;;;5003606;28;20048;-69
2022/03/28 12:11:47;;;;;;;14.45;8.70;;;;;;;;;;5007263;28;20089;-70
2022/03/28 12:14:12;;;;;;;17.20;9.25;;;;;;;;;;5016377;28;20037;-72
2022/03/28 12:16:51;;;;;;;15.48;8.52;;;;;;;;;;5017207;28;20044;-69
2022/03/28 12:19:21;;;;;;;19.45;9.32;;;;;;;;;;5016281;28;20330;-70
2022/03/28 12:21:47;;;;;;;18.17;8.77;;;;;;;;;;5018716;28;20040;-70
2022/03/28 12:24:15;;;;;;;19.33;10.07;;;;;;;;;;5018576;28;20112;-70
2022/03/28 12:26:41;;;;;;;17.65;9.20;;;;;;;;;;5001299;28;20162;-70
2022/03/28 12:29:09;;;;;;;15.07;9.63;;;;;;;;;;5000817;28;20020;-70
2022/03/28 12:31:34;;;;;;;15.07;9.02;;;;;;;;;;5000349;28;20445;-70
2022/03/28 12:34:00;;;;;;;17.48;9.05;;;;;;;;;;5018545;28;20033;-71
2022/03/28 12:36:26;;;;;;;15.02;8.77;;;;;;;;;;5000296;28;20065;-70
2022/03/28 12:38:56;;;;;;;18.38;9.50;;;;;;;;;;5019342;28;20666;-70
2022/03/28 12:41:21;;;;;;;17.95;9.60;;;;;;;;;;5017922;28;20567;-69
2022/03/28 12:43:48;;;;;;;16.55;10.07;;;;;;;;;;5018189;28;20017;-70
2022/03/28 12:46:16;;;;;;;21.42;9.82;;;;;;;;;;5018042;28;20029;-70
2022/03/28 12:48:51;;;;;;;16.92;9.73;;;;;;;;;;5016802;28;20025;-72
2022/03/28 12:51:25;;;;;;;15.52;10.05;;;;;;;;;;5018082;28;20040;-69
2022/03/28 12:53:59;;;;;;;17.38;9.30;;;;;;;;;;5017785;28;20033;-70
2022/03/28 12:56:31;;;;;;;16.52;9.70;;;;;;;;;;5015961;28;20503;-70
2022/03/28 12:59:02;;;;;;;21.38;10.15;;;;;;;;;;4999685;28;20112;-70
2022/03/28 13:01:29;;;;;;;16.67;9.88;;;;;;;;;;4986054;28;20123;-70
2022/03/28 13:04:09;;;;;;;20.70;10.73;;;;;;;;;;5016564;28;20021;-70
2022/03/28 13:06:39;;;;;;;;;;;;;;;;;;5018957;28;20458;-70
2022/03/28 13:09:04;;;;;;;17.58;10.35;;;;;;;;;;5015395;28;19939;-70
2022/03/28 13:11:33;;;;;;;21.83;11.00;;;;;;;;;;5017622;28;20448;-71
2022/03/28 13:14:04;;;;;;;20.13;11.32;;;;;;;;;;5017323;28;20029;-71
2022/03/28 13:16:29;;;;;;;21.42;11.10;;;;;;;;;;4999443;28;20577;-69
2022/03/28 13:18:59;;;;;;;16.42;10.55;;;;;;;;;;5017479;28;20028;-69
2022/03/28 13:21:28;;;;;;;19.60;10.60;;;;;;;;;;5017318;28;20602;-70
2022/03/28 13:24:14;;;;;;;20.70;12.27;;;;;;;;;;5006173;28;20461;-69
2022/03/28 13:26:42;;;;;;;26.95;11.43;;;;;;;;;;5000420;28;20036;-73
2022/03/28 13:29:16;;;;;;;16.85;10.10;;;;;;;;;;5017696;28;20084;-73
2022/03/28 13:31:45;;;;;;;17.92;10.13;;;;;;;;;;5017828;28;20040;-73
2022/03/28 13:34:10;;;;;;;20.50;10.95;;;;;;;;;;4998833;28;20040;-74
2022/03/28 13:36:39;;;;;;;19.20;10.77;;;;;;;;;;5016138;28;20060;-74
2022/03/28 13:39:07;;;;;;;20.30;11.00;;;;;;;;;;5017451;28;20127;-73
2022/03/28 13:41:34;;;;;;;19.30;10.23;;;;;;;;;;4988302;28;20346;-73
2022/03/28 13:44:02;;;;;;;20.52;10.77;;;;;;;;;;5017537;28;20025;-74
2022/03/28 13:46:28;;;;;;;17.33;9.82;;;;;;;;;;5016458;28;20037;-73
2022/03/28 13:48:55;;;;;;;21.58;11.15;;;;;;;;;;5017013;28;20029;-74
2022/03/28 13:51:20;;;;;;;19.17;11.85;;;;;;;;;;4999859;28;20116;-72
2022/03/28 13:53:45;;;;;;;20.25;11.55;;;;;;;;;;5006000;28;20096;-72
2022/03/28 13:56:13;;;;;;;18.13;11.18;;;;;;;;;;5016917;28;20611;-72
2022/03/28 13:58:40;;;;;;;21.92;10.82;;;;;;;;;;5016728;28;20091;-73
2022/03/28 14:01:06;;;;;;;17.85;10.82;;;;;;;;;;5016567;28;20567;-72
2022/03/28 14:03:34;;;;;;;17.73;10.73;;;;;;;;;;5016405;28;20059;-72
2022/03/28 14:06:00;;;;;;;17.75;10.55;;;;;;;;;;5016593;28;20017;-72
2022/03/28 14:08:26;;;;;;;17.73;10.70;;;;;;;;;;5015432;28;20036;-73
2022/03/28 14:10:54;;;;;;;20.15;10.48;;;;;;;;;;5016904;28;20133;-73
2022/03/28 14:13:23;;;;;;;18.95;11.35;;;;;;;;;;5016288;28;20056;-74
2022/03/28 14:15:48;;;;;;;20.70;12.43;;;;;;;;;;4997647;28;20806;-74
2022/03/28 14:18:15;;;;;;;25.20;11.70;;;;;;;;;;5016530;28;20029;-73
2022/03/28 14:20:43;;;;;;;20.48;11.73;;;;;;;;;;5017419;28;20366;-73
2022/03/28 14:23:10;;;;;;;21.60;12.32;;;;;;;;;;4983468;28;20033;-73
2022/03/28 14:25:36;;;;;;;19.85;12.27;;;;;;;;;;5014629;28;20401;-73